Time;durP1;ratioP1;P1;durP2;ratioP2;P2;SDS_P1;SDS_P2;PMS_P1;PMS_P2;Temp;Humidity;BMP_temperature;BMP_pressure;BME280_temperature;BME280_humidity;BME280_pressure;Samples;Min_cycle;Max_cycle;Signal;HPM_P1;HPM_P2
2022/07/30 00:02:41;;;;;;;12.27;7.07;;;;;;;25.31;100.00;101025.22;4959736;29;20031;-75
2022/07/30 00:05:27;;;;;;;11.75;6.93;;;;;;;25.57;100.00;101013.41;4959543;28;20047;-75
2022/07/30 00:08:13;;;;;;;14.98;6.97;;;;;;;25.73;100.00;101008.59;4959092;29;20038;-75
2022/07/30 00:10:59;;;;;;;10.68;7.18;;;;;;;25.86;100.00;101004.88;4959763;29;20049;-75
2022/07/30 00:13:44;;;;;;;14.52;6.35;;;;;;;25.82;100.00;101003.38;4959545;28;20394;-75
2022/07/30 00:16:30;;;;;;;14.10;6.78;;;;;;;26.01;100.00;100997.50;4958718;29;20054;-74
2022/07/30 00:19:16;;;;;;;13.10;6.75;;;;;;;25.65;100.00;101002.94;4959473;29;20023;-75
2022/07/30 00:22:02;;;;;;;13.52;6.70;;;;;;;25.97;100.00;101010.31;4946201;29;20082;-75
2022/07/30 00:24:48;;;;;;;17.25;6.78;;;;;;;25.64;100.00;100999.38;4959404;28;20105;-75
2022/07/30 00:27:34;;;;;;;14.10;6.38;;;;;;;25.75;100.00;101004.81;4959840;28;20126;-75
2022/07/30 00:30:19;;;;;;;15.73;6.07;;;;;;;25.87;100.00;101017.31;4959760;29;20035;-75
2022/07/30 00:33:06;;;;;;;17.83;6.03;;;;;;;25.93;100.00;101013.31;4960328;28;20078;-75
2022/07/30 00:35:51;;;;;;;11.45;6.20;;;;;;;25.87;100.00;101014.63;4945437;29;20067;-75
2022/07/30 00:38:37;;;;;;;8.57;6.00;;;;;;;25.84;100.00;101009.47;4959296;29;20027;-74
2022/07/30 00:41:23;;;;;;;13.07;5.53;;;;;;;25.70;100.00;101007.00;4958422;28;20038;-75
2022/07/30 00:44:09;;;;;;;10.00;6.10;;;;;;;25.76;100.00;101014.56;4945557;29;20126;-75
2022/07/30 00:46:55;;;;;;;10.40;6.00;;;;;;;25.74;100.00;101007.63;4958518;29;20023;-75
2022/07/30 00:49:41;;;;;;;10.98;6.03;;;;;;;25.57;100.00;101006.22;4945661;29;20054;-75
2022/07/30 00:52:30;;;;;;;15.63;6.85;;;;;;;25.35;100.00;101011.44;4959034;29;20031;-75
2022/07/30 00:55:16;;;;;;;10.90;6.95;;;;;;;25.23;100.00;101000.75;4958717;28;20034;-76
2022/07/30 00:58:02;;;;;;;8.88;6.57;;;;;;;24.97;100.00;100994.59;4959363;28;20042;-74
2022/07/30 01:00:48;;;;;;;10.93;6.78;;;;;;;25.11;100.00;100996.28;4959289;28;20035;-75
2022/07/30 01:03:33;;;;;;;11.00;6.85;;;;;;;25.59;100.00;100990.00;4958975;28;20027;-75
2022/07/30 01:06:19;;;;;;;10.55;6.82;;;;;;;25.44;100.00;100991.13;4958180;29;20329;-74
2022/07/30 01:09:06;;;;;;;11.13;6.60;;;;;;;25.37;100.00;100981.81;4959453;28;20086;-74
2022/07/30 01:11:52;;;;;;;11.02;6.93;;;;;;;25.74;100.00;100986.13;4958575;29;20031;-75
2022/07/30 01:14:38;;;;;;;10.88;6.18;;;;;;;25.53;100.00;100988.63;4958633;28;20046;-75
2022/07/30 01:17:25;;;;;;;10.88;6.75;;;;;;;25.50;100.00;100990.66;4958967;28;20466;-75
2022/07/30 01:20:25;;;;;;;12.32;6.47;;;;;;;25.71;100.00;100986.34;4958187;29;20351;-75
2022/07/30 01:23:23;;;;;;;13.88;7.53;;;;;;;25.31;100.00;100987.66;4958559;29;20034;-75
2022/07/30 01:26:16;;;;;;;14.10;7.78;;;;;;;25.09;100.00;100985.66;4959010;28;20423;-75
2022/07/30 01:29:03;;;;;;;12.48;7.18;;;;;;;25.17;100.00;100977.03;4945233;29;20031;-74
2022/07/30 01:31:54;;;;;;;15.40;7.78;;;;;;;25.40;100.00;100978.91;4944572;28;20027;-75
2022/07/30 01:34:42;;;;;;;12.73;7.30;;;;;;;25.34;100.00;100979.38;4958537;28;20027;-75
2022/07/30 01:37:30;;;;;;;13.25;7.95;;;;;;;25.63;100.00;100983.44;4957426;29;20374;-75
2022/07/30 01:40:17;;;;;;;12.20;8.30;;;;;;;25.42;100.00;100980.50;4943638;29;20055;-75
2022/07/30 01:43:05;;;;;;;15.30;8.23;;;;;;;25.31;100.00;100975.09;4944257;28;20402;-75
2022/07/30 01:45:52;;;;;;;11.43;7.75;;;;;;;25.65;100.00;100976.97;4944601;29;20039;-75
2022/07/30 01:48:41;;;;;;;12.77;7.90;;;;;;;25.58;100.00;100975.72;4956595;29;20114;-75
2022/07/30 01:51:28;;;;;;;13.32;8.05;;;;;;;25.45;100.00;100974.94;4944268;29;20038;-75
2022/07/30 01:54:17;;;;;;;13.98;8.38;;;;;;;25.14;100.00;100974.56;4956865;28;20019;-75
2022/07/30 01:57:04;;;;;;;13.95;8.65;;;;;;;24.92;100.00;100974.44;4957190;29;20038;-75
2022/07/30 01:59:54;;;;;;;10.30;8.40;;;;;;;25.05;100.00;100965.41;4957595;29;20019;-76
2022/07/30 02:02:40;;;;;;;12.55;8.48;;;;;;;24.93;100.00;100971.66;4944420;29;20024;-75
2022/07/30 02:05:30;;;;;;;13.73;8.57;;;;;;;24.91;100.00;100967.38;4957279;28;20023;-74
2022/07/30 02:08:26;;;;;;;9.85;7.75;;;;;;;25.10;100.00;100965.03;4943955;29;20034;-75
2022/07/30 02:12:27;;;;;;;11.15;8.45;;;;;;;25.05;100.00;100964.53;4942832;29;20126;-75
2022/07/30 02:14:26;;;;;;;10.68;8.13;;;;;;;25.12;100.00;100961.28;4956748;28;20031;-75
2022/07/30 02:17:19;;;;;;;11.93;8.85;;;;;;;24.97;100.00;100962.41;4956840;29;20043;-75
2022/07/30 02:20:08;;;;;;;13.05;8.70;;;;;;;24.50;100.00;100966.75;4942930;29;20030;-74
2022/07/30 02:22:58;;;;;;;13.02;8.88;;;;;;;24.54;100.00;100968.25;4956549;29;20115;-75
2022/07/30 02:25:50;;;;;;;12.18;8.45;;;;;;;24.13;100.00;100964.94;4956840;29;20406;-75
2022/07/30 02:28:39;;;;;;;14.40;9.00;;;;;;;24.26;100.00;100963.97;4957284;28;20031;-76
2022/07/30 02:31:28;;;;;;;12.65;9.30;;;;;;;24.61;100.00;100959.72;4957023;29;20023;-75
2022/07/30 02:34:15;;;;;;;14.13;8.80;;;;;;;24.54;100.00;100961.06;4956659;28;20118;-73
2022/07/30 02:37:03;;;;;;;11.90;8.57;;;;;;;24.81;100.00;100960.94;4942181;29;20042;-74
2022/07/30 02:39:50;;;;;;;13.05;9.15;;;;;;;24.53;100.00;100962.06;4956289;29;20090;-75
2022/07/30 02:42:38;;;;;;;11.00;8.77;;;;;;;24.68;100.00;100955.63;4956717;29;20114;-75
2022/07/30 02:45:24;;;;;;;13.55;9.30;;;;;;;24.77;100.00;100959.47;4956045;28;20042;-75
2022/07/30 02:48:12;;;;;;;11.45;9.07;;;;;;;24.55;100.00;100956.59;4956192;29;20035;-75
2022/07/30 02:51:00;;;;;;;14.45;8.70;;;;;;;24.75;100.00;100969.44;4956167;29;20039;-74
2022/07/30 02:53:48;;;;;;;12.05;9.73;;;;;;;24.80;100.00;100965.47;4956584;28;20468;-75
2022/07/30 02:56:36;;;;;;;12.18;9.40;;;;;;;24.44;100.00;100969.88;4956337;29;20035;-75
2022/07/30 02:59:23;;;;;;;10.57;9.48;;;;;;;24.55;100.00;100965.47;4956048;29;20023;-74
2022/07/30 03:02:10;;;;;;;11.60;9.25;;;;;;;24.62;100.00;100972.13;4956234;29;20031;-75
2022/07/30 03:04:58;;;;;;;17.95;9.85;;;;;;;24.55;100.00;100970.81;4955538;28;20027;-76
2022/07/30 03:07:45;;;;;;;15.35;9.18;;;;;;;24.51;100.00;100972.00;4956733;29;20031;-76
2022/07/30 03:10:32;;;;;;;19.58;9.73;;;;;;;24.35;100.00;100974.03;4943184;28;20102;-75
2022/07/30 03:13:19;;;;;;;15.98;9.73;;;;;;;24.16;100.00;100968.28;4956237;28;20023;-74
2022/07/30 03:16:08;;;;;;;13.07;9.70;;;;;;;24.07;100.00;100978.78;4955611;29;20062;-74
2022/07/30 03:18:57;;;;;;;15.00;9.30;;;;;;;24.16;100.00;100975.44;4956262;29;20023;-74
2022/07/30 03:21:45;;;;;;;14.07;9.65;;;;;;;24.32;100.00;100970.75;4955866;29;20039;-74
2022/07/30 03:24:31;;;;;;;20.02;9.75;;;;;;;24.48;100.00;100979.41;4942512;29;20031;-75
2022/07/30 03:27:17;;;;;;;14.30;9.60;;;;;;;24.48;100.00;100985.63;4956348;28;20066;-74
2022/07/30 03:30:05;;;;;;;14.25;9.13;;;;;;;24.33;100.00;100992.06;4956094;29;20469;-75
2022/07/30 03:32:52;;;;;;;15.32;9.32;;;;;;;24.06;100.00;100993.97;4942222;29;20102;-75
2022/07/30 03:35:41;;;;;;;15.52;9.52;;;;;;;24.29;100.00;100993.25;4943040;28;20031;-75
2022/07/30 03:38:28;;;;;;;15.38;9.70;;;;;;;24.63;100.00;101000.63;4956463;29;20023;-75
2022/07/30 03:41:15;;;;;;;13.45;9.40;;;;;;;24.33;100.00;101002.78;4955720;29;20457;-75
2022/07/30 03:44:01;;;;;;;15.98;9.75;;;;;;;24.56;100.00;101010.06;4943073;29;20046;-75
2022/07/30 03:46:49;;;;;;;19.65;9.88;;;;;;;24.11;100.00;100999.84;4956788;29;20023;-74
2022/07/30 03:49:35;;;;;;;15.00;10.27;;;;;;;23.69;100.00;100993.84;4955973;29;20034;-74
2022/07/30 03:52:21;;;;;;;15.30;11.05;;;;;;;24.01;100.00;100995.22;4955307;29;20066;-75
2022/07/30 03:55:09;;;;;;;20.30;10.82;;;;;;;23.79;100.00;101001.16;4955308;28;20023;-76
2022/07/30 03:57:55;;;;;;;14.77;10.52;;;;;;;23.69;100.00;100993.84;4955531;29;20031;-75
2022/07/30 04:00:41;;;;;;;13.88;10.77;;;;;;;23.84;100.00;100993.69;4955873;29;20377;-76
2022/07/30 04:03:29;;;;;;;16.48;10.80;;;;;;;23.93;100.00;100994.91;4955668;28;20027;-75
2022/07/30 04:06:14;;;;;;;15.82;10.95;;;;;;;23.77;100.00;101000.41;4955586;29;20133;-74
2022/07/30 04:09:00;;;;;;;14.85;10.50;;;;;;;23.89;100.00;101001.38;4956306;29;20123;-74
2022/07/30 04:11:46;;;;;;;15.20;11.10;;;;;;;23.99;100.00;101005.22;4956031;29;20114;-74
2022/07/30 04:14:43;;;;;;;16.25;11.30;;;;;;;23.98;100.00;101000.81;4955385;28;20045;-75
2022/07/30 04:17:45;;;;;;;18.27;11.70;;;;;;;23.86;100.00;101004.28;4957530;28;20031;-76
2022/07/30 04:20:36;;;;;;;14.65;10.95;;;;;;;24.30;100.00;101010.19;4958543;29;20144;-76
2022/07/30 04:23:21;;;;;;;16.75;11.60;;;;;;;24.13;100.00;101013.13;4958868;28;20113;-76
2022/07/30 04:26:08;;;;;;;17.85;12.55;;;;;;;24.06;100.00;101019.91;4958435;29;20087;-75
2022/07/30 04:28:54;;;;;;;16.77;13.02;;;;;;;23.97;100.00;101007.13;4958839;29;20024;-75
2022/07/30 04:31:40;;;;;;;16.92;12.40;;;;;;;23.87;100.00;101006.84;4958177;29;20031;-75
2022/07/30 04:34:26;;;;;;;18.85;13.02;;;;;;;24.18;100.00;101013.69;4958941;28;20045;-74
2022/07/30 04:37:11;;;;;;;16.73;12.55;;;;;;;23.95;100.00;101011.72;4957901;29;20081;-74
2022/07/30 04:39:57;;;;;;;16.02;13.27;;;;;;;23.95;100.00;101015.25;4959225;29;20035;-75
2022/07/30 04:42:43;;;;;;;17.42;12.82;;;;;;;24.39;100.00;101012.22;4931738;29;20069;-75
2022/07/30 04:45:29;;;;;;;20.00;13.55;;;;;;;24.36;100.00;101015.97;4957476;28;20034;-75
2022/07/30 04:48:15;;;;;;;22.60;12.93;;;;;;;24.24;100.00;101013.25;4958860;29;20039;-75
2022/07/30 04:51:08;;;;;;;23.52;14.25;;;;;;;24.06;100.00;101017.22;4958878;29;20062;-75
2022/07/30 04:53:56;;;;;;;20.00;14.23;;;;;;;24.06;100.00;101010.03;4958184;28;20035;-75
2022/07/30 04:56:46;;;;;;;17.05;13.27;;;;;;;24.08;100.00;101010.78;4958383;29;20035;-76
2022/07/30 04:59:36;;;;;;;18.65;14.27;;;;;;;24.18;100.00;101013.69;4958107;29;20023;-75
2022/07/30 05:02:25;;;;;;;26.20;15.05;;;;;;;24.56;100.00;101003.84;4958354;29;20163;-75
2022/07/30 05:05:13;;;;;;;23.77;15.57;;;;;;;24.74;100.00;101002.56;4957939;28;20461;-75
2022/07/30 05:08:00;;;;;;;23.02;15.15;;;;;;;25.02;100.00;101000.47;4959064;29;20039;-75
2022/07/30 05:10:46;;;;;;;20.00;14.90;;;;;;;25.11;100.00;100994.44;4945756;28;20023;-75
2022/07/30 05:13:32;;;;;;;23.55;14.85;;;;;;;25.41;100.00;100999.41;4957322;28;20041;-76
2022/07/30 05:16:17;;;;;;;24.65;14.40;;;;;;;25.68;100.00;100998.19;4958451;29;20491;-75
2022/07/30 05:19:03;;;;;;;22.33;15.10;;;;;;;25.53;100.00;101004.72;4957535;29;20023;-74
2022/07/30 05:21:49;;;;;;;21.45;15.05;;;;;;;25.16;100.00;101004.84;4958174;29;20062;-75
2022/07/30 05:24:34;;;;;;;21.85;15.00;;;;;;;25.44;100.00;101009.91;4957605;28;20482;-75
2022/07/30 05:27:20;;;;;;;21.25;14.98;;;;;;;25.34;100.00;101009.75;4957603;28;20055;-75
2022/07/30 05:30:07;;;;;;;18.60;14.43;;;;;;;25.58;100.00;101004.38;4957051;29;20055;-76
2022/07/30 05:32:53;;;;;;;24.02;15.13;;;;;;;25.91;100.00;101007.19;4958154;29;20114;-74
2022/07/30 05:35:38;;;;;;;24.52;15.88;;;;;;;25.36;100.00;100991.69;4957290;29;20110;-75
2022/07/30 05:38:24;;;;;;;23.02;14.48;;;;;;;25.77;100.00;100991.28;4957611;29;20019;-76
2022/07/30 05:41:10;;;;;;;18.00;15.77;;;;;;;25.58;100.00;100997.19;4944067;29;20382;-75
2022/07/30 05:43:55;;;;;;;21.77;14.57;;;;;;;25.89;100.00;100996.59;4957062;28;20082;-76
2022/07/30 05:46:41;;;;;;;18.70;14.55;;;;;;;26.16;100.00;100996.31;4956943;29;20366;-76
2022/07/30 05:49:27;;;;;;;19.75;15.38;;;;;;;26.49;100.00;101002.59;4957677;29;20019;-75
2022/07/30 05:52:13;;;;;;;19.48;15.43;;;;;;;26.27;100.00;101001.69;4943973;29;20023;-76
2022/07/30 05:54:59;;;;;;;23.60;15.00;;;;;;;26.23;100.00;101009.16;4957103;28;20118;-75
2022/07/30 05:57:44;;;;;;;17.73;14.90;;;;;;;26.57;100.00;101007.38;4944576;29;20591;-74
2022/07/30 06:00:30;;;;;;;18.02;13.90;;;;;;;26.47;100.00;101018.00;4955947;29;20031;-76
2022/07/30 06:03:16;;;;;;;19.95;14.18;;;;;;;26.68;100.00;101010.13;4944195;28;20054;-75
2022/07/30 06:06:04;;;;;;;17.58;14.57;;;;;;;26.65;100.00;101010.34;4956554;29;20101;-74
2022/07/30 06:08:50;;;;;;;19.08;14.70;;;;;;;26.92;100.00;101008.13;4957383;29;20037;-75
2022/07/30 06:11:36;;;;;;;17.75;14.38;;;;;;;26.94;100.00;101001.66;4957655;29;20110;-74
2022/07/30 06:14:21;;;;;;;19.50;14.02;;;;;;;26.85;100.00;101002.38;4958490;28;20453;-74
2022/07/30 06:17:07;;;;;;;18.70;13.90;;;;;;;26.73;100.00;100999.84;4957055;29;20074;-76
2022/07/30 06:19:53;;;;;;;20.05;15.20;;;;;;;26.81;100.00;101000.09;4956312;29;20027;-75
2022/07/30 06:22:39;;;;;;;19.48;14.50;;;;;;;27.04;100.00;101005.31;4956889;29;20031;-75
2022/07/30 06:25:25;;;;;;;18.45;15.57;;;;;;;27.18;100.00;100996.13;4957009;28;20054;-76
2022/07/30 06:28:11;;;;;;;18.92;13.98;;;;;;;27.22;100.00;100994.91;4956972;29;20039;-77
2022/07/30 06:30:56;;;;;;;15.27;12.73;;;;;;;27.35;100.00;100988.41;4957321;29;20459;-76
2022/07/30 06:33:43;;;;;;;16.73;13.15;;;;;;;27.44;100.00;100992.16;4957759;28;20440;-77
2022/07/30 06:36:29;;;;;;;15.65;12.75;;;;;;;27.58;100.00;100990.03;4957065;28;20035;-75
2022/07/30 06:39:15;;;;;;;16.70;12.57;;;;;;;27.91;100.00;100990.91;4943437;28;20038;-77
2022/07/30 06:42:01;;;;;;;14.75;13.13;;;;;;;28.01;100.00;100990.00;4956768;29;20122;-75
2022/07/30 06:44:47;;;;;;;17.80;13.02;;;;;;;28.16;100.00;100999.44;4955928;28;20429;-75
2022/07/30 06:47:34;;;;;;;20.92;13.25;;;;;;;28.16;100.00;100990.53;4956486;29;20070;-78
2022/07/30 06:50:19;;;;;;;25.05;14.18;;;;;;;28.42;100.00;100984.63;4943050;29;20027;-75
2022/07/30 06:53:05;;;;;;;20.38;12.50;;;;;;;28.44;100.00;100982.63;4956220;29;20098;-74
2022/07/30 06:55:51;;;;;;;14.80;11.57;;;;;;;28.32;100.00;100983.66;4943130;29;20458;-75
2022/07/30 06:58:38;;;;;;;15.75;11.68;;;;;;;28.67;100.00;100973.38;4942931;29;20415;-75
2022/07/30 07:01:23;;;;;;;17.67;12.00;;;;;;;28.96;100.00;100966.25;4956264;29;20063;-75
2022/07/30 07:04:09;;;;;;;14.90;12.48;;;;;;;29.10;100.00;100957.81;4942822;29;20031;-75
2022/07/30 07:06:55;;;;;;;19.73;11.50;;;;;;;29.09;100.00;100960.63;4955708;28;20059;-74
2022/07/30 07:09:40;;;;;;;15.13;12.18;;;;;;;29.56;100.00;100967.94;4955532;29;20031;-74
2022/07/30 07:12:26;;;;;;;23.92;17.17;;;;;;;29.56;100.00;100965.22;4956452;28;20035;-75
2022/07/30 07:15:12;;;;;;;13.15;11.40;;;;;;;29.50;100.00;100957.72;4943166;29;20412;-75
2022/07/30 07:17:58;;;;;;;12.77;10.32;;;;;;;29.72;100.00;100961.00;4956570;29;20370;-75
2022/07/30 07:20:45;;;;;;;13.55;10.35;;;;;;;29.76;100.00;100967.84;4956323;29;20027;-73
2022/07/30 07:23:31;;;;;;;12.77;10.40;;;;;;;29.61;100.00;100960.31;4955879;28;20046;-74
2022/07/30 07:26:16;;;;;;;14.05;11.63;;;;;;;29.95;100.00;100951.63;4955978;29;20082;-76
2022/07/30 07:29:02;;;;;;;11.55;10.35;;;;;;;29.93;100.00;100958.16;4956072;29;20031;-75
2022/07/30 07:31:48;;;;;;;16.27;10.02;;;;;;;30.22;100.00;100953.59;4956548;29;20027;-76
2022/07/30 07:34:34;;;;;;;14.18;10.40;;;;;;;30.42;100.00;100956.06;4957094;28;20378;-76
2022/07/30 07:37:19;;;;;;;19.60;10.27;;;;;;;30.15;100.00;100956.03;4954854;29;20031;-75
2022/07/30 07:40:06;;;;;;;12.93;10.75;;;;;;;30.91;100.00;100952.19;4956032;29;20023;-74
2022/07/30 07:42:52;;;;;;;18.33;13.48;;;;;;;31.01;100.00;100959.25;4955639;29;20031;-75
2022/07/30 07:45:38;;;;;;;13.73;9.75;;;;;;;31.07;100.00;100946.97;4942567;29;20360;-77
2022/07/30 07:48:24;;;;;;;13.82;9.95;;;;;;;31.51;100.00;100950.66;4955875;29;20031;-76
2022/07/30 07:51:09;;;;;;;13.02;10.02;;;;;;;31.46;100.00;100956.53;4943192;28;20090;-76
2022/07/30 07:53:55;;;;;;;10.20;9.05;;;;;;;31.79;97.12;100960.44;4945978;28;20027;-75
2022/07/30 07:56:41;;;;;;;10.68;9.43;;;;;;;31.69;94.41;100955.06;4946583;29;20078;-75
2022/07/30 07:59:27;;;;;;;10.40;9.40;;;;;;;31.51;97.10;100947.97;4960259;29;20027;-75
2022/07/30 08:02:12;;;;;;;11.55;9.38;;;;;;;32.12;94.64;100956.97;4960878;29;20034;-75
2022/07/30 08:04:58;;;;;;;13.27;9.40;;;;;;;32.49;91.36;100944.88;4966595;28;20027;-74
2022/07/30 08:07:44;;;;;;;12.13;9.38;;;;;;;32.59;87.56;100952.91;4964089;29;20031;-73
2022/07/30 08:10:30;;;;;;;11.02;9.10;;;;;;;32.45;87.35;100958.91;4964560;29;20039;-75
2022/07/30 08:13:16;;;;;;;10.80;8.77;;;;;;;32.65;82.86;100947.66;4964737;28;20074;-75
2022/07/30 08:16:02;;;;;;;14.20;9.13;;;;;;;32.88;85.35;100950.69;4962691;29;20035;-74
2022/07/30 08:18:48;;;;;;;14.48;11.68;;;;;;;32.64;87.46;100948.69;4964074;29;20027;-74
2022/07/30 08:21:34;;;;;;;11.25;9.82;;;;;;;33.09;87.32;100945.66;4951083;29;20046;-75
2022/07/30 08:24:20;;;;;;;13.85;9.20;;;;;;;32.49;87.88;100944.88;4963152;28;20178;-75
2022/07/30 08:27:06;;;;;;;15.10;9.68;;;;;;;33.38;84.20;100949.66;4962478;29;20055;-79
2022/07/30 08:29:52;;;;;;;12.45;9.63;;;;;;;33.70;84.36;100955.16;4963409;29;20028;-76
2022/07/30 08:32:38;;;;;;;14.02;10.40;;;;;;;33.89;81.58;100949.41;4963745;29;20101;-77
2022/07/30 08:35:24;;;;;;;18.00;12.38;;;;;;;34.35;71.65;100950.56;4960945;28;20019;-74
2022/07/30 08:38:11;;;;;;;9.07;8.00;;;;;;;34.30;72.63;100952.91;4962762;29;20016;-76
2022/07/30 08:40:57;;;;;;;12.77;10.20;;;;;;;34.83;73.98;100947.69;4945952;29;20074;-76
2022/07/30 08:43:46;;;;;;;16.05;10.30;;;;;;;33.81;78.82;100937.63;4958836;28;20027;-76
2022/07/30 08:46:33;;;;;;;10.93;9.70;;;;;;;34.10;81.50;100936.13;4959128;29;20050;-76
2022/07/30 08:49:19;;;;;;;10.45;9.18;;;;;;;34.46;80.38;100937.44;4959408;29;20444;-76
2022/07/30 08:52:07;;;;;;;11.48;9.52;;;;;;;34.60;81.41;100924.97;4959032;29;20513;-75
2022/07/30 08:54:54;;;;;;;13.60;10.20;;;;;;;34.39;82.25;100930.16;4957500;28;20060;-75
2022/07/30 08:57:41;;;;;;;10.30;9.25;;;;;;;34.83;78.76;100939.53;4945915;29;20045;-75
2022/07/30 09:00:27;;;;;;;10.93;8.60;;;;;;;34.71;66.67;100930.88;4959053;28;20049;-76
2022/07/30 09:03:13;;;;;;;14.27;9.90;;;;;;;34.60;74.17;100927.69;4943999;29;20027;-76
2022/07/30 09:06:03;;;;;;;12.27;9.10;;;;;;;34.31;76.35;100920.13;4945337;29;20027;-76
2022/07/30 09:08:49;;;;;;;10.35;9.25;;;;;;;34.13;78.27;100915.88;4958236;29;20501;-76
2022/07/30 09:11:35;;;;;;;11.32;9.18;;;;;;;33.97;81.34;100911.34;4958108;29;20090;-76
2022/07/30 09:14:21;;;;;;;11.73;8.80;;;;;;;34.44;74.27;100908.69;4945277;29;20058;-76
2022/07/30 09:17:07;;;;;;;15.57;9.45;;;;;;;34.98;76.39;100905.94;4959036;29;20070;-76
2022/07/30 09:20:05;;;;;;;12.27;8.95;;;;;;;35.38;73.79;100906.72;4944541;29;20042;-75
2022/07/30 09:22:53;;;;;;;10.38;9.27;;;;;;;35.00;71.03;100903.03;4944447;29;20183;-76
2022/07/30 09:25:42;;;;;;;9.73;8.82;;;;;;;34.87;71.87;100892.72;4945114;28;20047;-74
2022/07/30 09:28:32;;;;;;;9.68;8.75;;;;;;;35.14;72.11;100897.66;4957282;29;20093;-76
2022/07/30 09:31:19;;;;;;;10.50;9.43;;;;;;;35.12;71.86;100877.91;4943302;29;20038;-76
2022/07/30 09:34:23;;;;;;;13.07;9.90;;;;;;;34.63;74.97;100875.59;4956997;28;20092;-76
2022/07/30 09:37:08;;;;;;;12.65;8.85;;;;;;;35.18;75.56;100871.75;4956836;29;20042;-76
2022/07/30 09:39:54;;;;;;;14.55;9.10;;;;;;;35.16;76.59;100867.50;4957131;29;20067;-76
2022/07/30 09:42:40;;;;;;;14.63;9.38;;;;;;;35.09;77.34;100863.81;4957450;29;20106;-76
2022/07/30 09:45:26;;;;;;;12.25;9.43;;;;;;;35.34;73.34;100861.78;4944367;29;20023;-77
2022/07/30 09:48:23;;;;;;;10.55;8.60;;;;;;;34.70;76.42;100871.16;4957724;29;20031;-76
2022/07/30 09:51:09;;;;;;;14.38;9.20;;;;;;;34.78;75.72;100866.53;4957926;29;20034;-76
2022/07/30 09:53:59;;;;;;;14.10;9.13;;;;;;;35.00;78.39;100868.44;4957050;28;20458;-76
2022/07/30 09:56:45;;;;;;;13.00;8.93;;;;;;;35.05;72.77;100865.19;4957496;29;20039;-76
2022/07/30 09:59:31;;;;;;;9.93;8.20;;;;;;;34.95;63.73;100859.13;4943659;29;20508;-76
2022/07/30 10:02:17;;;;;;;10.98;8.25;;;;;;;35.36;65.34;100862.44;4943938;29;20031;-76
2022/07/30 10:05:23;;;;;;;13.60;8.75;;;;;;;35.52;71.60;100857.72;4944450;29;20109;-76
2022/07/30 10:08:08;;;;;;;10.93;9.07;;;;;;;35.88;71.13;100868.84;4956843;29;20470;-76
2022/07/30 10:10:54;;;;;;;13.07;8.60;;;;;;;35.14;77.35;100855.94;4956610;29;20105;-76
2022/07/30 10:13:42;;;;;;;11.18;9.10;;;;;;;35.05;77.39;100849.72;4956892;28;20062;-76
2022/07/30 10:16:28;;;;;;;10.07;8.38;;;;;;;34.76;81.21;100837.78;4956900;29;20125;-77
2022/07/30 10:19:14;;;;;;;12.90;8.30;;;;;;;34.52;78.11;100827.84;4956083;29;20020;-76
2022/07/30 10:22:00;;;;;;;12.10;8.60;;;;;;;35.35;75.23;100833.50;4957619;29;20107;-77
2022/07/30 10:24:47;;;;;;;11.00;8.60;;;;;;;35.38;75.11;100828.53;4957118;28;20114;-76
2022/07/30 10:27:33;;;;;;;10.45;8.02;;;;;;;35.11;74.62;100824.44;4937855;29;20130;-76
2022/07/30 10:30:19;;;;;;;15.65;8.15;;;;;;;35.25;72.60;100828.28;4938845;29;20024;-75
2022/07/30 10:33:06;;;;;;;10.30;8.15;;;;;;;35.20;72.36;100826.06;4938874;29;20036;-75
2022/07/30 10:35:52;;;;;;;8.90;7.95;;;;;;;34.93;72.14;100814.88;4938482;29;20031;-75
2022/07/30 10:38:42;;;;;;;8.73;7.82;;;;;;;35.40;68.25;100807.41;4938619;29;20107;-76
2022/07/30 10:41:58;;;;;;;10.38;7.97;;;;;;;34.67;73.68;100800.72;4938498;29;20383;-76
2022/07/30 10:45:14;;;;;;;12.30;8.02;;;;;;;35.17;70.57;100806.53;4937083;29;20035;-76
2022/07/30 10:48:02;;;;;;;9.40;7.60;;;;;;;35.22;69.69;100795.94;4938344;29;20039;-76
2022/07/30 10:50:54;;;;;;;11.57;7.88;;;;;;;34.85;67.79;100802.19;4938443;29;20045;-77
2022/07/30 10:53:45;;;;;;;11.52;7.60;;;;;;;34.67;68.67;100801.56;4937442;29;20066;-76
2022/07/30 10:56:31;;;;;;;7.97;7.18;;;;;;;35.45;65.57;100802.25;4938135;29;20372;-75
2022/07/30 10:59:16;;;;;;;12.98;7.50;;;;;;;35.81;62.94;100796.97;4937444;29;20039;-76
2022/07/30 11:02:09;;;;;;;9.13;7.28;;;;;;;35.79;60.04;100790.84;4938245;29;20030;-76
2022/07/30 11:05:33;;;;;;;10.32;7.47;;;;;;;35.27;61.69;100788.03;4937165;29;20409;-76
2022/07/30 11:08:39;;;;;;;8.38;7.20;;;;;;;35.81;61.65;100780.59;4917698;29;20032;-76
2022/07/30 11:11:27;;;;;;;8.65;7.40;;;;;;;35.80;59.18;100776.19;4916567;29;20040;-75
2022/07/30 11:14:13;;;;;;;8.05;7.22;;;;;;;35.62;60.35;100772.91;4937996;29;20024;-75
2022/07/30 11:17:00;;;;;;;12.40;8.13;;;;;;;35.71;60.50;100771.81;4937687;29;20072;-76
2022/07/30 11:20:01;;;;;;;9.70;7.70;;;;;;;35.98;59.66;100769.31;4936975;29;20098;-76
2022/07/30 11:22:48;;;;;;;8.85;6.90;;;;;;;36.27;53.18;100766.56;4924555;29;20130;-76
2022/07/30 11:25:33;;;;;;;9.00;7.35;;;;;;;35.98;49.47;100771.19;4939434;29;20055;-76
2022/07/30 11:28:44;;;;;;;7.85;6.85;;;;;;;36.21;51.95;100766.47;4955932;29;20086;-76
2022/07/30 11:31:32;;;;;;;9.88;7.03;;;;;;;36.04;54.11;100771.28;4955030;29;20362;-76
2022/07/30 11:34:24;;;;;;;9.68;7.32;;;;;;;35.60;56.77;100769.53;4956603;28;20034;-76
2022/07/30 11:37:16;;;;;;;9.88;7.38;;;;;;;36.15;53.71;100762.63;4955171;29;20042;-76
2022/07/30 11:40:06;;;;;;;8.50;6.95;;;;;;;35.94;54.23;100740.72;4955776;29;20366;-75
2022/07/30 11:43:24;;;;;;;11.00;7.22;;;;;;;35.81;54.55;100739.69;4942517;29;20078;-76
2022/07/30 11:46:13;;;;;;;10.18;7.18;;;;;;;35.87;53.07;100731.59;4955927;29;20028;-76
2022/07/30 11:49:07;;;;;;;7.60;6.80;;;;;;;36.03;52.83;100736.84;4956069;29;20039;-76
2022/07/30 11:51:53;;;;;;;8.95;6.97;;;;;;;36.48;49.71;100722.94;4955924;29;20035;-75
2022/07/30 11:54:54;;;;;;;9.52;6.63;;;;;;;36.42;49.55;100718.25;4955538;28;20159;-75
2022/07/30 11:57:41;;;;;;;8.15;6.85;;;;;;;36.89;50.08;100704.94;4956169;29;20050;-76
2022/07/30 12:00:40;;;;;;;11.70;7.28;;;;;;;36.22;49.55;100709.00;4955483;29;20027;-76
2022/07/30 12:03:30;;;;;;;8.38;7.05;;;;;;;36.87;48.23;100703.41;4956330;28;20447;-76
2022/07/30 12:06:20;;;;;;;7.70;6.90;;;;;;;37.25;46.49;100697.47;4954911;29;20050;-77
2022/07/30 12:09:05;;;;;;;7.70;6.90;;;;;;;36.98;46.09;100689.22;4955662;29;20023;-76
2022/07/30 12:11:51;;;;;;;7.80;7.00;;;;;;;37.32;41.13;100692.91;4955638;29;20035;-76
2022/07/30 12:14:37;;;;;;;10.32;6.82;;;;;;;36.80;42.01;100686.13;4956323;28;20042;-75
2022/07/30 12:17:40;;;;;;;7.72;6.70;;;;;;;36.94;42.15;100686.06;4954893;29;20062;-76
2022/07/30 12:20:27;;;;;;;9.00;7.20;;;;;;;37.17;44.10;100666.72;4941666;29;20443;-75
2022/07/30 12:23:13;;;;;;;8.88;6.75;;;;;;;36.99;44.79;100663.59;4955507;29;20449;-76
2022/07/30 12:25:59;;;;;;;7.50;6.80;;;;;;;36.46;41.21;100662.25;4956030;29;20051;-75
2022/07/30 12:28:45;;;;;;;9.05;6.97;;;;;;;36.23;41.59;100658.84;4955572;29;20066;-75
2022/07/30 12:31:32;;;;;;;7.70;7.00;;;;;;;36.17;41.52;100656.00;4955321;29;20422;-74
2022/07/30 12:34:23;;;;;;;7.28;6.57;;;;;;;36.16;40.80;100646.97;4955610;28;20101;-75
2022/07/30 12:37:09;;;;;;;7.60;6.78;;;;;;;36.52;40.43;100653.25;4955381;28;20035;-75
2022/07/30 12:40:11;;;;;;;9.80;6.60;;;;;;;36.87;40.53;100641.44;4958946;29;20031;-76
2022/07/30 12:42:57;;;;;;;9.38;7.00;;;;;;;36.98;38.78;100637.31;4958511;29;20035;-77
2022/07/30 12:45:43;;;;;;;8.25;6.45;;;;;;;36.53;38.86;100626.81;4958193;29;20074;-75
2022/07/30 12:48:29;;;;;;;7.82;6.72;;;;;;;37.03;38.02;100618.44;4945446;29;20123;-75